Time;durP1;ratioP1;P1;durP2;ratioP2;P2;SDS_P1;SDS_P2;PMS_P1;PMS_P2;Temp;Humidity;BMP_temperature;BMP_pressure;BME280_temperature;BME280_humidity;BME280_pressure;Samples;Min_cycle;Max_cycle;Signal;HPM_P1;HPM_P2
2021/07/07 00:02:13;;;;;;;5.15;1.48;;;;;;;15.37;73.65;100995.84;4997786;28;20038;-69
2021/07/07 00:04:38;;;;;;;4.38;1.90;;;;;;;15.34;73.78;100990.97;5011892;28;20032;-69
2021/07/07 00:07:04;;;;;;;4.78;1.20;;;;;;;15.32;73.76;100994.78;5034471;28;20419;-68
2021/07/07 00:09:29;;;;;;;2.65;1.40;;;;;;;15.29;73.85;101002.97;5012157;28;20391;-69
2021/07/07 00:11:55;;;;;;;3.83;1.67;;;;;;;15.26;73.88;101001.53;5029754;28;20045;-69
2021/07/07 00:14:20;;;;;;;2.22;1.65;;;;;;;15.26;73.96;100995.53;5028812;28;20052;-69
2021/07/07 00:16:46;;;;;;;4.93;1.77;;;;;;;15.24;73.99;100992.25;5030564;28;20403;-67
2021/07/07 00:19:11;;;;;;;5.28;1.52;;;;;;;15.21;73.89;101001.28;5030375;28;20033;-69
2021/07/07 00:21:37;;;;;;;3.65;1.17;;;;;;;15.20;73.82;100999.66;5009931;28;20026;-69
2021/07/07 00:24:02;;;;;;;10.05;2.72;;;;;;;15.17;73.81;100998.22;4999201;28;20434;-69
2021/07/07 00:26:28;;;;;;;5.93;1.75;;;;;;;15.11;73.96;100995.53;5012356;28;20037;-69
2021/07/07 00:28:53;;;;;;;9.13;2.10;;;;;;;15.02;73.98;100994.78;5012456;28;20040;-69
2021/07/07 00:31:20;;;;;;;4.32;1.33;;;;;;;14.92;74.22;100976.78;5010979;28;20037;-69
2021/07/07 00:33:45;;;;;;;6.70;1.45;;;;;;;14.87;74.43;100986.97;5020309;28;20029;-69
2021/07/07 00:36:11;;;;;;;3.42;1.60;;;;;;;14.81;74.37;100979.84;5012736;28;20269;-69
2021/07/07 00:38:37;;;;;;;3.90;1.90;;;;;;;14.72;74.53;100976.50;4997826;28;20024;-69
2021/07/07 00:41:02;;;;;;;8.85;1.70;;;;;;;14.70;74.66;100986.31;5029696;28;20475;-69
2021/07/07 00:43:28;;;;;;;4.40;1.80;;;;;;;14.70;74.45;100980.28;5029773;28;20079;-68
2021/07/07 00:45:53;;;;;;;5.40;1.42;;;;;;;14.72;74.52;100978.31;5028636;28;20395;-68
2021/07/07 00:48:19;;;;;;;3.05;1.20;;;;;;;14.70;74.49;100981.09;5012772;28;20317;-69
2021/07/07 00:50:45;;;;;;;6.00;1.60;;;;;;;14.67;74.69;100986.66;5028358;28;20067;-69
2021/07/07 00:53:11;;;;;;;7.03;1.80;;;;;;;14.65;74.93;100966.97;5011689;28;20041;-69
2021/07/07 00:55:40;;;;;;;5.07;1.40;;;;;;;14.59;75.08;100971.91;5009993;28;20033;-69
2021/07/07 00:58:07;;;;;;;6.50;1.98;;;;;;;14.55;75.14;100968.00;5012145;28;20025;-68
2021/07/07 01:00:34;;;;;;;5.82;1.63;;;;;;;14.53;75.30;100967.38;5029414;28;20033;-69
2021/07/07 01:03:02;;;;;;;4.00;1.80;;;;;;;14.50;75.46;100961.69;4995235;28;20028;-69
2021/07/07 01:05:28;;;;;;;7.45;1.88;;;;;;;14.50;75.37;100965.09;5002622;28;20041;-69
2021/07/07 01:07:54;;;;;;;4.85;2.10;;;;;;;14.47;75.54;100970.69;5028201;28;20036;-69
2021/07/07 01:10:20;;;;;;;4.60;2.00;;;;;;;14.50;75.29;100974.75;5029503;28;20044;-69
2021/07/07 01:12:46;;;;;;;5.63;2.15;;;;;;;14.50;75.25;100972.94;5011529;28;20029;-69
2021/07/07 01:15:19;;;;;;;5.80;1.88;;;;;;;14.47;75.21;100980.31;5008506;28;20056;-69
2021/07/07 01:17:45;;;;;;;;;;;;;;;14.40;75.16;100983.63;5030237;28;20124;-69
2021/07/07 01:20:16;;;;;;;4.90;1.80;;;;;;;14.33;75.12;100982.69;5013041;28;20024;-69
2021/07/07 01:22:42;;;;;;;7.28;1.92;;;;;;;14.23;75.33;100982.13;4994491;28;20107;-69
2021/07/07 01:25:11;;;;;;;6.20;1.50;;;;;;;14.15;75.76;100974.41;5027716;28;20109;-69
2021/07/07 01:27:37;;;;;;;12.23;2.13;;;;;;;14.13;75.96;100973.75;5010761;28;20121;-69
2021/07/07 01:30:05;;;;;;;4.97;1.83;;;;;;;14.13;76.20;100971.97;5011360;28;20029;-69
2021/07/07 01:32:30;;;;;;;11.18;2.33;;;;;;;14.13;76.11;100977.16;5014573;28;20025;-69
2021/07/07 01:34:56;;;;;;;3.05;1.77;;;;;;;14.14;76.05;100973.56;5010878;28;20040;-69
2021/07/07 01:37:22;;;;;;;5.57;1.67;;;;;;;14.13;76.18;100974.56;5003499;28;20036;-69
2021/07/07 01:39:49;;;;;;;6.70;1.98;;;;;;;14.09;76.18;100981.13;5031683;28;20044;-69
2021/07/07 01:42:14;;;;;;;7.07;1.63;;;;;;;14.06;76.42;100980.66;5011468;28;20040;-69
2021/07/07 01:44:40;;;;;;;5.38;1.95;;;;;;;14.04;76.54;100988.66;5010515;28;20033;-69
2021/07/07 01:47:06;;;;;;;5.78;1.98;;;;;;;13.98;76.49;100982.34;5028111;28;20032;-69
2021/07/07 01:49:32;;;;;;;10.55;2.63;;;;;;;14.02;76.30;100985.41;5027906;28;20245;-71
2021/07/07 01:51:57;;;;;;;7.68;2.10;;;;;;;13.97;77.18;100980.69;5009443;28;20494;-72
2021/07/07 01:54:23;;;;;;;7.35;2.30;;;;;;;13.93;77.13;100983.84;5009893;28;20372;-72
2021/07/07 01:56:48;;;;;;;12.60;3.17;;;;;;;13.90;77.38;100990.22;5012596;28;20033;-73
2021/07/07 01:59:14;;;;;;;5.63;2.28;;;;;;;13.87;77.29;100984.53;4994664;28;20455;-72
2021/07/07 02:01:39;;;;;;;10.48;2.42;;;;;;;13.83;77.79;100991.88;5011496;28;20091;-71
2021/07/07 02:04:05;;;;;;;8.15;2.35;;;;;;;13.76;77.62;100998.75;4990456;28;20033;-73
2021/07/07 02:06:30;;;;;;;12.07;2.58;;;;;;;13.82;77.14;100992.84;5011127;28;20034;-71
2021/07/07 02:08:57;;;;;;;5.68;2.70;;;;;;;13.78;77.13;100991.59;5028499;28;20033;-72
2021/07/07 02:11:23;;;;;;;6.53;2.25;;;;;;;13.69;77.52;100988.19;5022874;28;20079;-72
2021/07/07 02:13:49;;;;;;;9.00;2.78;;;;;;;13.70;77.43;100991.63;5027301;28;20037;-72
2021/07/07 02:16:14;;;;;;;7.18;2.53;;;;;;;13.80;76.65;100989.63;5010293;28;20673;-72
2021/07/07 02:18:40;;;;;;;8.07;2.95;;;;;;;13.67;77.25;100992.78;5010458;28;20037;-71
2021/07/07 02:21:07;;;;;;;11.93;2.38;;;;;;;13.65;77.32;100989.53;5010910;28;20029;-72
2021/07/07 02:23:33;;;;;;;12.93;2.78;;;;;;;13.66;77.44;100987.75;5035702;22;20402;-69
2021/07/07 02:25:58;;;;;;;4.72;2.30;;;;;;;13.63;77.52;100983.69;5009227;28;20034;-69
2021/07/07 02:28:24;;;;;;;6.75;2.15;;;;;;;13.59;77.83;100983.22;5008446;28;20548;-69
2021/07/07 02:30:52;;;;;;;9.50;2.53;;;;;;;13.58;78.01;100985.97;5014932;28;20057;-69
2021/07/07 02:33:17;;;;;;;7.22;2.42;;;;;;;13.60;77.86;100982.25;4992864;28;20438;-69
2021/07/07 02:35:44;;;;;;;7.45;1.77;;;;;;;13.62;78.12;100980.28;4987430;28;20030;-69
2021/07/07 02:38:13;;;;;;;7.88;2.65;;;;;;;13.65;78.02;100983.53;5023415;23;20045;-73
2021/07/07 02:40:39;;;;;;;3.65;1.95;;;;;;;13.64;77.71;100977.50;5007785;28;20026;-74
2021/07/07 02:43:06;;;;;;;5.88;2.30;;;;;;;13.63;77.78;100978.47;5006076;28;20574;-74
2021/07/07 02:45:34;;;;;;;4.55;1.88;;;;;;;13.58;77.82;100975.56;5003296;28;20183;-74
2021/07/07 02:48:00;;;;;;;13.70;2.63;;;;;;;13.54;77.80;100974.28;5005406;28;20029;-74
2021/07/07 02:50:26;;;;;;;6.95;1.98;;;;;;;13.48;77.98;100975.78;5009522;28;20573;-74
2021/07/07 02:52:52;;;;;;;5.18;2.05;;;;;;;13.41;77.98;100975.66;5007957;28;20083;-74
2021/07/07 02:55:20;;;;;;;8.98;1.92;;;;;;;13.35;78.02;100981.53;4998889;28;20034;-73
2021/07/07 02:57:56;;;;;;;6.40;2.70;;;;;;;13.33;77.83;100980.91;5020271;28;20029;-73
2021/07/07 03:00:25;;;;;;;6.65;2.70;;;;;;;13.31;77.51;100980.25;4982856;28;20030;-74
2021/07/07 03:02:51;;;;;;;5.40;2.80;;;;;;;13.21;78.03;100982.22;5004292;28;20060;-73
2021/07/07 03:05:17;;;;;;;11.90;3.08;;;;;;;13.22;77.68;100986.44;5006784;28;20037;-74
2021/07/07 03:07:42;;;;;;;9.85;2.92;;;;;;;13.19;77.93;100981.59;5007334;28;20153;-73
2021/07/07 03:10:11;;;;;;;6.65;3.05;;;;;;;13.10;78.49;100982.59;5012801;28;20017;-73
2021/07/07 03:12:36;;;;;;;6.78;2.42;;;;;;;13.08;78.75;100984.56;5013015;28;20565;-73
2021/07/07 03:15:04;;;;;;;8.23;2.50;;;;;;;13.05;78.87;100985.69;5005917;28;20030;-74
2021/07/07 03:17:29;;;;;;;6.25;2.20;;;;;;;12.99;78.64;100994.97;5011814;28;20045;-75
2021/07/07 03:19:55;;;;;;;11.70;2.42;;;;;;;13.00;78.50;100991.41;5012325;28;20022;-74
2021/07/07 03:22:20;;;;;;;5.95;2.15;;;;;;;12.99;78.75;100991.56;4996203;28;20395;-74
2021/07/07 03:24:46;;;;;;;8.63;2.45;;;;;;;12.98;78.63;101003.78;5012046;28;20030;-74
2021/07/07 03:27:11;;;;;;;13.60;3.50;;;;;;;12.98;78.79;101000.38;5019499;28;20088;-74
2021/07/07 03:29:37;;;;;;;7.72;2.15;;;;;;;13.00;78.60;101006.22;4994100;28;20038;-74
2021/07/07 03:32:03;;;;;;;6.30;2.05;;;;;;;13.03;78.65;101008.47;5010918;28;20046;-74
2021/07/07 03:34:29;;;;;;;8.70;2.55;;;;;;;12.99;78.69;101013.19;5010849;28;20124;-74
2021/07/07 03:36:55;;;;;;;8.15;2.58;;;;;;;12.95;78.71;101014.50;5017806;28;20037;-73
2021/07/07 03:39:20;;;;;;;4.05;2.50;;;;;;;12.91;78.65;101012.41;5011860;28;20031;-74
2021/07/07 03:41:45;;;;;;;8.13;2.88;;;;;;;12.90;78.76;101018.59;5019782;28;20037;-74
2021/07/07 03:44:11;;;;;;;9.02;2.50;;;;;;;12.94;78.56;101022.47;5012366;28;20040;-72
2021/07/07 03:46:37;;;;;;;12.15;2.95;;;;;;;12.90;78.64;101024.59;5006122;28;20395;-74
2021/07/07 03:49:03;;;;;;;8.75;3.03;;;;;;;12.85;79.13;101026.91;5004947;28;20038;-73
2021/07/07 03:51:28;;;;;;;7.75;3.17;;;;;;;12.85;78.97;101032.13;5013877;28;20120;-74
2021/07/07 03:53:54;;;;;;;12.50;2.35;;;;;;;12.85;79.28;101038.13;5010617;28;20361;-75
2021/07/07 03:56:19;;;;;;;6.10;2.60;;;;;;;12.88;79.39;101043.97;5019410;28;20041;-74
2021/07/07 03:58:45;;;;;;;10.60;2.40;;;;;;;12.87;79.05;101043.16;5010255;28;20037;-73
2021/07/07 04:01:11;;;;;;;10.98;3.28;;;;;;;12.96;78.66;101051.75;5012346;28;20030;-73
2021/07/07 04:03:36;;;;;;;10.23;3.80;;;;;;;12.87;79.00;101053.56;5011819;28;20033;-73
2021/07/07 04:06:02;;;;;;;6.88;3.25;;;;;;;12.82;79.28;101054.06;5016358;28;20083;-74
2021/07/07 04:08:27;;;;;;;13.60;3.33;;;;;;;12.92;79.51;101059.09;5012072;28;20038;-73
2021/07/07 04:10:53;;;;;;;8.25;3.40;;;;;;;12.87;79.46;101066.59;5016132;28;20208;-74
2021/07/07 04:13:18;;;;;;;11.27;2.90;;;;;;;12.82;80.00;101064.47;5011084;28;20488;-73
2021/07/07 04:15:44;;;;;;;8.93;3.50;;;;;;;12.83;80.05;101073.09;5021739;28;20515;-74
2021/07/07 04:18:10;;;;;;;6.72;1.88;;;;;;;12.83;80.02;101079.13;5018580;28;20041;-75
2021/07/07 04:20:36;;;;;;;10.50;3.65;;;;;;;12.88;80.35;101078.59;5012284;28;20067;-74
2021/07/07 04:23:01;;;;;;;8.57;3.17;;;;;;;12.92;79.69;101079.09;5007358;28;20034;-73
2021/07/07 04:25:27;;;;;;;14.13;3.22;;;;;;;12.98;79.39;101076.66;5016711;28;20037;-74
2021/07/07 04:27:52;;;;;;;9.77;3.33;;;;;;;12.97;79.85;101076.81;5009218;28;20036;-73
2021/07/07 04:30:19;;;;;;;18.02;3.50;;;;;;;13.12;79.80;101076.97;5012006;28;20026;-72
2021/07/07 04:32:46;;;;;;;11.27;3.10;;;;;;;13.19;79.96;101089.16;5010358;28;20507;-73
2021/07/07 04:35:13;;;;;;;15.35;3.67;;;;;;;13.14;80.11;101082.81;5013225;28;20029;-73
2021/07/07 04:37:39;;;;;;;16.65;4.03;;;;;;;13.16;80.24;101088.66;5000630;28;20144;-73
2021/07/07 04:40:07;;;;;;;19.40;4.68;;;;;;;13.17;80.34;101079.88;5022465;28;20034;-73
2021/07/07 04:42:33;;;;;;;17.50;5.68;;;;;;;13.23;80.37;101085.22;5002770;28;20026;-73
2021/07/07 04:44:58;;;;;;;13.75;4.60;;;;;;;13.36;79.77;101082.13;5008791;28;20564;-72
2021/07/07 04:47:24;;;;;;;14.43;4.68;;;;;;;13.49;80.10;101086.03;5012741;28;20030;-73
2021/07/07 04:49:50;;;;;;;12.35;4.28;;;;;;;13.57;80.35;101093.81;5026794;28;20045;-72
2021/07/07 04:52:16;;;;;;;10.48;4.03;;;;;;;13.76;79.90;101084.75;5011262;28;20045;-72
2021/07/07 04:54:41;;;;;;;16.52;4.00;;;;;;;13.83;79.33;101083.91;5007280;28;20025;-72
2021/07/07 04:57:07;;;;;;;11.85;3.47;;;;;;;13.95;79.07;101086.13;5009767;28;20205;-72
2021/07/07 04:59:32;;;;;;;16.30;4.72;;;;;;;13.99;78.87;101085.63;5009794;28;20112;-72
2021/07/07 05:01:58;;;;;;;13.32;3.55;;;;;;;14.20;77.52;101087.63;5015905;28;20503;-73
2021/07/07 05:04:23;;;;;;;14.68;3.38;;;;;;;14.31;77.64;101086.41;5009747;28;20305;-72
2021/07/07 05:06:49;;;;;;;9.80;2.75;;;;;;;14.38;77.08;101078.72;5011058;28;20037;-72
2021/07/07 05:09:14;;;;;;;16.23;3.65;;;;;;;14.44;77.21;101074.59;5007641;28;20053;-72
2021/07/07 05:11:40;;;;;;;12.88;3.03;;;;;;;14.58;76.27;101079.09;5002197;28;20042;-72
2021/07/07 05:14:07;;;;;;;9.65;3.10;;;;;;;14.56;76.23;101084.44;5009618;28;20038;-72
2021/07/07 05:16:32;;;;;;;11.43;2.78;;;;;;;14.60;75.82;101084.94;5019817;28;20284;-71
2021/07/07 05:18:58;;;;;;;14.80;3.65;;;;;;;14.64;76.28;101085.41;5009031;28;20443;-72
2021/07/07 05:21:23;;;;;;;12.32;2.92;;;;;;;14.73;75.39;101085.16;5027275;28;20021;-72
2021/07/07 05:23:49;;;;;;;10.38;2.38;;;;;;;14.67;76.01;101092.84;5008898;28;21738;-73
2021/07/07 05:26:14;;;;;;;15.60;2.72;;;;;;;14.78;75.58;101095.06;5017815;28;20453;-72
2021/07/07 05:28:40;;;;;;;14.88;3.47;;;;;;;14.84;76.20;101091.72;5017760;28;20090;-72
2021/07/07 05:31:07;;;;;;;20.83;3.60;;;;;;;14.95;76.25;101095.72;5009120;28;20538;-72
2021/07/07 05:33:34;;;;;;;14.48;3.70;;;;;;;15.08;75.73;101092.50;5011094;28;20025;-72
2021/07/07 05:36:02;;;;;;;12.32;2.97;;;;;;;15.09;76.13;101094.13;5008457;28;20029;-72
2021/07/07 05:38:27;;;;;;;15.52;2.72;;;;;;;15.18;76.06;101093.88;5007811;28;20033;-72
2021/07/07 05:40:53;;;;;;;17.65;2.95;;;;;;;15.25;75.53;101098.38;5008266;28;20037;-73
2021/07/07 05:43:18;;;;;;;12.15;2.65;;;;;;;15.30;75.72;101098.66;4997568;28;20034;-72
2021/07/07 05:45:44;;;;;;;7.72;2.65;;;;;;;15.29;76.19;101097.81;5007244;28;20033;-72
2021/07/07 05:48:09;;;;;;;14.30;2.75;;;;;;;15.37;76.14;101099.56;5012723;28;20041;-72
2021/07/07 05:50:35;;;;;;;8.57;2.13;;;;;;;15.34;76.24;101110.34;5022063;28;20041;-72
2021/07/07 05:53:01;;;;;;;10.63;2.50;;;;;;;15.46;76.06;101113.31;5009119;28;20388;-72
2021/07/07 05:55:28;;;;;;;17.88;3.67;;;;;;;15.48;75.87;101112.19;5004077;28;20034;-72
2021/07/07 05:57:54;;;;;;;9.48;3.15;;;;;;;15.63;74.74;101119.19;5008152;28;20031;-72
2021/07/07 06:00:22;;;;;;;10.60;2.47;;;;;;;15.62;74.79;101112.34;5008626;28;20034;-73
2021/07/07 06:02:48;;;;;;;13.23;2.92;;;;;;;15.78;74.85;101117.38;5004403;28;20122;-72
2021/07/07 06:05:14;;;;;;;10.23;2.83;;;;;;;15.86;74.61;101114.69;5006073;28;20041;-72
2021/07/07 06:07:41;;;;;;;11.25;3.10;;;;;;;16.07;73.76;101127.00;5011160;28;20025;-72
2021/07/07 06:10:09;;;;;;;9.50;2.30;;;;;;;15.98;74.19;101114.22;5002270;28;20057;-72
2021/07/07 06:12:34;;;;;;;13.38;2.65;;;;;;;16.04;74.50;101126.56;5007376;28;20113;-72
2021/07/07 06:15:00;;;;;;;11.13;2.60;;;;;;;16.16;74.40;101127.69;4989081;28;20124;-73
2021/07/07 06:17:26;;;;;;;12.45;3.25;;;;;;;16.35;72.57;101121.84;5019514;28;20033;-72
2021/07/07 06:19:52;;;;;;;11.88;2.45;;;;;;;16.41;73.05;101130.78;5017026;28;20025;-73
2021/07/07 06:22:18;;;;;;;13.10;2.53;;;;;;;16.57;72.71;101129.69;5008101;28;20080;-72
2021/07/07 06:24:43;;;;;;;4.65;2.30;;;;;;;16.74;71.82;101130.25;5006622;28;20503;-72
2021/07/07 06:27:09;;;;;;;12.32;2.45;;;;;;;16.87;70.68;101134.81;5015190;28;20335;-72
2021/07/07 06:29:35;;;;;;;8.57;2.20;;;;;;;16.95;70.03;101132.06;5015347;28;20080;-73
2021/07/07 06:32:00;;;;;;;8.95;2.67;;;;;;;17.18;69.12;101137.09;5013921;28;20034;-72
2021/07/07 06:34:26;;;;;;;14.85;2.33;;;;;;;17.97;67.18;101129.81;4996155;28;20099;-73
2021/07/07 06:36:51;;;;;;;8.57;2.15;;;;;;;18.64;64.59;101133.41;5010965;28;20037;-72
2021/07/07 06:39:17;;;;;;;6.28;1.60;;;;;;;19.09;63.99;101125.75;5008295;28;20042;-72
2021/07/07 06:41:42;;;;;;;9.73;2.20;;;;;;;18.91;64.22;101136.06;5009778;28;20096;-72
2021/07/07 06:44:08;;;;;;;10.88;1.92;;;;;;;18.76;63.45;101131.81;5010347;28;20037;-73
2021/07/07 06:46:35;;;;;;;7.78;2.20;;;;;;;18.95;63.50;101137.25;5011162;28;20045;-71
2021/07/07 06:49:02;;;;;;;10.52;2.38;;;;;;;19.17;62.53;101138.66;5009658;28;20069;-72
2021/07/07 06:51:28;;;;;;;6.35;1.73;;;;;;;19.96;61.09;101139.44;5012923;28;20017;-72
2021/07/07 06:53:53;;;;;;;11.82;1.73;;;;;;;20.65;58.32;101137.03;5011094;28;20041;-75
2021/07/07 06:56:19;;;;;;;16.75;3.10;;;;;;;20.88;56.39;101135.66;5004729;28;20042;-71
2021/07/07 06:58:44;;;;;;;8.85;1.48;;;;;;;21.23;54.86;101133.28;5006349;28;20042;-72
2021/07/07 07:01:10;;;;;;;11.32;2.53;;;;;;;21.56;54.21;101127.66;5011341;28;20120;-73
2021/07/07 07:03:35;;;;;;;13.75;2.17;;;;;;;21.97;54.71;101135.91;5015992;28;20573;-72
2021/07/07 07:06:01;;;;;;;6.57;2.10;;;;;;;;;;5011274;28;20037;-72
2021/07/07 07:08:26;;;;;;;11.30;1.80;;;;;;;22.43;52.13;101129.16;5017301;28;20034;-73
2021/07/07 07:10:52;;;;;;;6.57;1.75;;;;;;;22.61;50.62;101138.84;5013665;28;20038;-72
2021/07/07 07:13:17;;;;;;;8.77;1.80;;;;;;;22.93;49.11;101141.19;5008930;28;20038;-73
2021/07/07 07:15:47;;;;;;;13.00;1.65;;;;;;;22.54;50.34;101138.16;5008191;28;20026;-72
2021/07/07 07:18:12;;;;;;;8.57;1.85;;;;;;;23.12;50.60;101144.53;5000528;28;20053;-72
2021/07/07 07:20:38;;;;;;;12.57;2.63;;;;;;;23.28;48.74;101146.47;5007450;28;20469;-73
2021/07/07 07:23:04;;;;;;;5.03;1.80;;;;;;;23.37;47.53;101146.13;5006593;28;20111;-75
2021/07/07 07:25:29;;;;;;;8.70;1.50;;;;;;;23.67;47.34;101143.28;5007749;28;20036;-73
2021/07/07 07:27:55;;;;;;;14.00;1.83;;;;;;;24.11;48.35;101148.91;5013087;28;20519;-73
2021/07/07 07:30:21;;;;;;;3.17;1.20;;;;;;;24.40;47.66;101154.97;5011312;28;20036;-73
2021/07/07 07:32:48;;;;;;;6.40;1.63;;;;;;;24.74;47.42;101155.00;5007292;28;20063;-73
2021/07/07 07:35:18;;;;;;;6.10;1.30;;;;;;;25.03;45.49;101161.00;5006980;28;20358;-75
2021/07/07 07:37:53;;;;;;;11.18;1.73;;;;;;;24.94;44.26;101157.16;5012317;28;20325;-72
2021/07/07 07:40:24;;;;;;;8.18;1.92;;;;;;;24.96;44.95;101163.00;5009972;28;20120;-74
2021/07/07 07:42:50;;;;;;;12.55;3.17;;;;;;;24.97;44.79;101164.59;5017321;28;20029;-74
2021/07/07 07:45:16;;;;;;;7.20;1.38;;;;;;;25.14;44.32;101174.41;5009441;28;20088;-74
2021/07/07 07:47:42;;;;;;;9.27;1.50;;;;;;;25.30;43.89;101170.94;5004540;28;20041;-75
2021/07/07 07:50:11;;;;;;;4.35;1.13;;;;;;;25.69;44.26;101168.22;5013423;28;20033;-74
2021/07/07 07:52:38;;;;;;;6.50;1.45;;;;;;;25.79;44.67;101164.88;5013920;28;20480;-74
2021/07/07 07:55:05;;;;;;;6.50;1.52;;;;;;;25.75;43.16;101164.59;5008453;28;20029;-74
2021/07/07 07:57:36;;;;;;;5.20;1.23;;;;;;;26.15;43.60;101163.41;5006547;28;20455;-75
2021/07/07 08:00:13;;;;;;;5.28;1.30;;;;;;;26.33;41.33;101167.56;5012041;28;20026;-72
2021/07/07 08:02:42;;;;;;;5.43;1.45;;;;;;;26.05;40.89;101163.34;5000943;28;20060;-73
2021/07/07 08:05:08;;;;;;;12.98;1.90;;;;;;;26.03;40.85;101168.06;4991342;28;20033;-75
2021/07/07 08:07:34;;;;;;;3.42;1.15;;;;;;;26.33;41.17;101170.22;5007573;28;20407;-76
2021/07/07 08:10:00;;;;;;;6.07;1.77;;;;;;;26.06;41.22;101169.44;5011401;28;20034;-73
2021/07/07 08:12:26;;;;;;;5.68;1.83;;;;;;;26.21;41.84;101174.91;5005502;28;20040;-76
2021/07/07 08:14:51;;;;;;;7.07;1.40;;;;;;;26.39;40.21;101163.09;5010318;28;20034;-75
2021/07/07 08:17:19;;;;;;;6.75;1.30;;;;;;;26.17;40.05;101161.31;4998404;28;20045;-74
2021/07/07 08:19:44;;;;;;;7.80;1.20;;;;;;;26.55;41.81;101161.38;5007421;28;20033;-74
2021/07/07 08:22:10;;;;;;;8.95;1.95;;;;;;;26.95;40.21;101168.03;4992159;28;20034;-74
2021/07/07 08:24:35;;;;;;;7.72;1.42;;;;;;;26.75;38.87;101168.72;5008363;28;20124;-74
2021/07/07 08:27:01;;;;;;;7.07;1.00;;;;;;;26.98;38.29;101176.31;5007042;28;20137;-74
2021/07/07 08:29:27;;;;;;;5.68;1.60;;;;;;;27.37;39.01;101172.56;5013049;28;20083;-73
2021/07/07 08:31:53;;;;;;;4.53;1.20;;;;;;;27.32;37.89;101175.19;5010386;28;20419;-74
2021/07/07 08:34:19;;;;;;;7.57;2.42;;;;;;;27.71;36.75;101167.63;5016847;28;20236;-73
2021/07/07 08:36:45;;;;;;;5.10;1.08;;;;;;;27.96;38.13;101174.91;5028985;23;20060;-72
2021/07/07 08:39:10;;;;;;;7.90;1.58;;;;;;;26.38;39.20;101166.81;5013189;28;20490;-71
2021/07/07 08:41:38;;;;;;;4.40;1.10;;;;;;;26.77;39.30;101172.72;5016415;28;20109;-72
2021/07/07 08:44:06;;;;;;;5.93;1.98;;;;;;;26.43;40.56;101172.19;5016238;28;20077;-71
2021/07/07 08:46:32;;;;;;;5.63;1.15;;;;;;;26.88;39.12;101175.44;5011984;28;20042;-71
2021/07/07 08:48:57;;;;;;;12.25;1.95;;;;;;;26.84;37.70;101171.69;5016692;28;20025;-70
2021/07/07 08:51:23;;;;;;;7.55;1.65;;;;;;;26.39;39.59;101179.03;5018976;23;20053;-72
2021/07/07 08:53:48;;;;;;;6.57;1.33;;;;;;;26.99;38.04;101171.78;5021302;28;20052;-73
2021/07/07 08:56:14;;;;;;;9.07;1.80;;;;;;;26.66;39.03;101176.38;5013855;28;20032;-73
2021/07/07 08:58:39;;;;;;;5.50;1.08;;;;;;;26.12;40.52;101177.19;4998815;28;20513;-72
2021/07/07 09:01:05;;;;;;;12.82;1.38;;;;;;;25.98;40.49;101183.97;5010119;28;20026;-73
2021/07/07 09:03:31;;;;;;;6.97;1.80;;;;;;;25.63;37.93;101185.13;5008540;28;20251;-74
2021/07/07 09:05:58;;;;;;;10.85;1.98;;;;;;;24.82;38.72;101196.19;4996396;28;20045;-73
2021/07/07 09:08:38;;;;;;;4.40;1.05;;;;;;;24.66;41.92;101195.97;4993057;28;20026;-72
2021/07/07 09:11:20;;;;;;;6.47;1.00;;;;;;;25.26;38.70;101196.38;4997302;28;20029;-72
2021/07/07 09:13:48;;;;;;;9.27;1.33;;;;;;;25.70;39.35;101200.91;4992360;28;20034;-72
2021/07/07 09:16:16;;;;;;;6.70;1.48;;;;;;;25.69;40.39;101201.94;4996013;28;20404;-73
2021/07/07 09:18:42;;;;;;;8.73;1.50;;;;;;;25.43;39.98;101213.03;5013149;28;20048;-73
2021/07/07 09:21:24;;;;;;;5.53;1.10;;;;;;;25.32;39.98;101203.34;4998951;28;20080;-73
2021/07/07 09:23:50;;;;;;;9.00;2.10;;;;;;;26.17;39.40;101197.72;4993440;28;20041;-73
2021/07/07 09:26:26;;;;;;;6.13;1.15;;;;;;;26.45;38.69;101201.97;5008526;28;20037;-72
2021/07/07 09:28:52;;;;;;;8.43;1.35;;;;;;;26.10;37.07;101200.56;4984310;28;20235;-73
2021/07/07 09:31:41;;;;;;;4.88;1.73;;;;;;;26.68;37.15;101197.41;4991525;28;20021;-72
2021/07/07 09:34:15;;;;;;;4.80;1.13;;;;;;;26.28;36.11;101198.63;4986256;28;20077;-72
2021/07/07 09:36:46;;;;;;;7.78;1.48;;;;;;;25.91;38.24;101205.38;4988299;28;20041;-73
2021/07/07 09:39:12;;;;;;;5.78;1.02;;;;;;;25.63;37.55;101204.50;4991388;28;20092;-74
2021/07/07 09:41:39;;;;;;;7.40;1.35;;;;;;;25.26;38.02;101209.63;4989837;28;20017;-73
2021/07/07 09:44:06;;;;;;;3.33;1.08;;;;;;;25.43;40.09;101202.44;4991398;28;20033;-73
2021/07/07 09:46:32;;;;;;;7.32;1.27;;;;;;;25.87;39.15;101211.44;5001375;28;20119;-73
2021/07/07 09:48:58;;;;;;;4.65;1.15;;;;;;;26.32;37.56;101213.81;4995298;28;20029;-72
2021/07/07 09:51:23;;;;;;;3.83;1.35;;;;;;;26.61;39.04;101217.00;4983220;28;20046;-73
2021/07/07 09:53:49;;;;;;;11.73;2.08;;;;;;;26.03;39.00;101218.53;5002970;28;20069;-72
2021/07/07 09:56:14;;;;;;;4.93;0.95;;;;;;;25.92;38.96;101217.66;4998159;28;20025;-71
2021/07/07 09:58:40;;;;;;;6.13;1.10;;;;;;;25.87;39.33;101220.22;4997431;28;20063;-72
2021/07/07 10:01:05;;;;;;;6.82;1.27;;;;;;;25.35;40.60;101231.22;5010750;28;20041;-71
2021/07/07 10:03:31;;;;;;;5.13;1.50;;;;;;;25.32;39.95;101239.69;4989419;28;20226;-72
2021/07/07 10:05:59;;;;;;;6.82;1.42;;;;;;;25.10;40.95;101236.94;4983685;28;20060;-71
2021/07/07 10:08:25;;;;;;;8.93;1.30;;;;;;;24.77;40.57;101227.94;5013422;28;20069;-73
2021/07/07 10:10:52;;;;;;;3.70;1.00;;;;;;;24.76;40.46;101234.28;4991633;28;20506;-70
2021/07/07 10:13:17;;;;;;;3.88;1.10;;;;;;;24.59;40.87;101240.38;4977904;28;20467;-72
2021/07/07 10:15:43;;;;;;;5.50;1.00;;;;;;;24.67;40.64;101239.97;5005469;28;20026;-72
2021/07/07 10:18:08;;;;;;;7.00;1.40;;;;;;;25.49;39.95;101237.00;4986246;28;20037;-72
2021/07/07 10:20:35;;;;;;;4.45;1.40;;;;;;;25.96;38.37;101229.38;4984739;28;20026;-72
2021/07/07 10:23:04;;;;;;;4.28;1.50;;;;;;;26.25;39.88;101231.00;4990938;28;20033;-72
2021/07/07 10:25:32;;;;;;;5.38;1.13;;;;;;;26.34;37.08;101224.19;4994961;28;20033;-72
2021/07/07 10:28:01;;;;;;;4.45;1.08;;;;;;;26.72;39.23;101233.06;5015024;28;20141;-71
2021/07/07 10:30:56;;;;;;;7.25;1.20;;;;;;;26.36;36.18;101227.41;4995470;28;20037;-72
2021/07/07 10:33:24;;;;;;;5.05;1.00;;;;;;;26.40;37.37;101223.19;5022299;28;20045;-72
2021/07/07 10:36:01;;;;;;;5.80;1.10;;;;;;;26.64;38.24;101225.56;4994407;28;20075;-73
2021/07/07 10:38:26;;;;;;;6.45;1.10;;;;;;;26.54;39.07;101227.03;4991771;28;20033;-71
2021/07/07 10:40:54;;;;;;;5.47;1.23;;;;;;;26.26;41.01;101233.41;4993837;28;20085;-73
2021/07/07 10:43:44;;;;;;;4.70;0.82;;;;;;;26.29;37.34;101235.56;4981292;28;20128;-71
2021/07/07 10:46:33;;;;;;;4.25;0.85;;;;;;;26.30;36.93;101231.84;4982501;28;20169;-71
2021/07/07 10:49:17;;;;;;;4.28;1.38;;;;;;;26.22;36.89;101230.47;5000312;28;20036;-71
2021/07/07 10:51:47;;;;;;;4.53;0.85;;;;;;;25.96;38.02;101239.22;4974289;28;1078790;-70
2021/07/07 10:54:23;;;;;;;8.30;1.65;;;;;;;25.83;38.48;101254.41;4986874;28;20033;-72
2021/07/07 10:56:50;;;;;;;6.88;1.88;;;;;;;25.21;38.71;101249.31;5011244;28;20485;-71
2021/07/07 10:59:41;;;;;;;7.82;1.42;;;;;;;24.91;41.32;101252.31;5009926;28;20125;-70
2021/07/07 11:02:16;;;;;;;4.43;1.02;;;;;;;24.87;39.25;101257.28;4964978;28;20125;-70
2021/07/07 11:04:47;;;;;;;6.78;1.20;;;;;;;24.64;40.41;101259.03;4989785;28;20415;-72
2021/07/07 11:07:30;;;;;;;3.80;1.27;;;;;;;24.65;39.53;101262.47;4990640;28;20488;-71
2021/07/07 11:10:07;;;;;;;3.78;0.98;;;;;;;24.99;40.19;101260.66;4988080;28;20065;-72
2021/07/07 11:12:35;;;;;;;4.25;0.90;;;;;;;25.11;38.97;101259.75;5019269;28;20041;-72
2021/07/07 11:15:01;;;;;;;4.85;0.90;;;;;;;25.04;39.16;101265.25;4999330;28;20045;-71
2021/07/07 11:17:45;;;;;;;3.53;0.82;;;;;;;25.24;38.03;101259.44;4991214;28;20120;-72
2021/07/07 11:20:20;;;;;;;3.05;0.95;;;;;;;25.38;37.31;101263.38;5005980;28;20096;-74
2021/07/07 11:23:03;;;;;;;7.18;0.90;;;;;;;25.41;38.01;101264.75;5009506;28;20041;-74
2021/07/07 11:25:31;;;;;;;4.60;1.00;;;;;;;25.43;40.18;101276.75;4992731;28;20403;-72